Weather reports worldwide

Advertisment
Newcastle, United Kingdom (3245): temperature & dewpoint: 11.12.2017 23:00:00 - 17.12.2017 23:00:00 (GMT)Newcastle, United Kingdom (3245): wind speed: 11.12.2017 23:00:00 - 17.12.2017 23:00:00 (GMT)Newcastle, United Kingdom (3245): wind direction: 11.12.2017 23:00:00 - 17.12.2017 23:00:00 (GMT)Newcastle, United Kingdom (3245): visibility: 11.12.2017 23:00:00 - 17.12.2017 23:00:00 (GMT)
Date & Time tt [°C] td [°C] ff [km/h] ff [kn] dd vv [km]
17.12.2017 23:00:00 3,0 0,0 11 6 WNW 10
17.12.2017 22:00:00 3,0 0,0 13 7 WNW 10
17.12.2017 21:00:00 4,0 0,0 21 11 W 10
17.12.2017 20:00:00 4,0 1,0 22 12 W 10
17.12.2017 19:00:00 5,0 1,0 11 6 WNW 10
17.12.2017 18:00:00 6,0 2,0 16 9 WNW 10
17.12.2017 17:00:00 7,0 5,0 22 12 WNW 10
17.12.2017 16:00:00 8,0 7,0 24 13 W 10
17.12.2017 15:00:00 8,0 7,0 22 12 WSW 10
17.12.2017 14:00:00 8,0 6,0 21 11 WSW 10
17.12.2017 13:00:00 8,0 5,0 15 8 SW 10
17.12.2017 12:00:00 7,0 5,0 18 10 SSW 10
17.12.2017 11:00:00 6,0 5,0 13 7 SSW 10
17.12.2017 10:00:00 5,0 4,0 13 7 SSW 6
17.12.2017 09:00:00 4,0 3,0 5 3 S 10
17.12.2017 08:00:00 3,0 1,0 9 5 S 10
17.12.2017 07:00:00 -1,0 -2,0 2 1 - 10
17.12.2017 06:00:00 -1,0 -2,0 2 1 - 10
17.12.2017 05:00:00 -1,0 -2,0 4 2 SSW 10
17.12.2017 04:00:00 -1,0 -2,0 0 0 N 10
17.12.2017 03:00:00 -2,0 -3,0 5 3 SSW 10
17.12.2017 02:00:00 -2,0 -3,0 5 3 SW 10
17.12.2017 01:00:00 -2,0 -3,0 8 4 WSW 10
17.12.2017 00:00:00 -2,0 -2,0 2 1 SW 10
16.12.2017 23:00:00 -2,0 -2,0 2 1 - 10
16.12.2017 22:00:00 -2,0 -3,0 5 3 - 10
16.12.2017 21:00:00 -1,0 -2,0 8 4 WSW 10
16.12.2017 20:00:00 -1,0 -2,0 5 3 W 10
16.12.2017 19:00:00 -1,0 -2,0 9 5 W 10
16.12.2017 18:00:00 -1,0 -2,0 8 4 WNW 10
16.12.2017 17:00:00 0,0 -2,0 11 6 WNW 10
16.12.2017 16:00:00 1,0 -2,0 8 4 W 10
16.12.2017 15:00:00 1,0 -1,0 9 5 W 10
16.12.2017 14:00:00 2,0 -1,0 11 6 W 10
16.12.2017 13:00:00 2,0 -1,0 15 8 W 10
16.12.2017 12:00:00 2,0 -1,0 9 5 W 10
16.12.2017 11:00:00 1,0 -1,0 13 7 W 10
16.12.2017 10:00:00 0,0 -2,0 15 8 W 10
16.12.2017 09:00:00 0,0 -3,0 5 3 - 10
16.12.2017 08:00:00 0,0 -3,0 11 6 W 10
16.12.2017 07:00:00 0,0 -3,0 9 5 W 10
16.12.2017 06:00:00 -1,0 -3,0 4 2 - 10
16.12.2017 05:00:00 0,0 -3,0 9 5 W 10
16.12.2017 04:00:00 0,0 -3,0 11 6 WNW 10
16.12.2017 03:00:00 1,0 -3,0 13 7 WNW 10
16.12.2017 02:00:00 1,0 -2,0 11 6 WNW 10
16.12.2017 01:00:00 0,0 -2,0 11 6 W 10
16.12.2017 00:00:00 1,0 -2,0 9 5 W 10
15.12.2017 23:00:00 1,0 -2,0 18 10 WNW 10
15.12.2017 22:00:00 1,0 -2,0 15 8 W 10
15.12.2017 21:00:00 1,0 -1,0 15 8 W 10
15.12.2017 20:00:00 2,0 -1,0 15 8 W 10
15.12.2017 19:00:00 2,0 -1,0 15 8 W 10
15.12.2017 18:00:00 2,0 0,0 13 7 WNW 10
15.12.2017 17:00:00 2,0 0,0 21 11 NW 10
15.12.2017 16:00:00 3,0 0,0 18 10 NW 10
15.12.2017 15:00:00 4,0 1,0 24 13 NNW 10
15.12.2017 14:00:00 5,0 2,0 22 12 NNW 10
15.12.2017 13:00:00 4,0 2,0 16 9 NNW 10
15.12.2017 12:00:00 4,0 3,0 22 12 N 9
15.12.2017 11:00:00 4,0 3,0 13 7 NNW 10
15.12.2017 10:00:00 4,0 3,0 18 10 NW 10
15.12.2017 09:00:00 2,0 2,0 15 8 WNW 6
15.12.2017 08:00:00 3,0 1,0 21 11 NNW 5
15.12.2017 07:00:00 2,0 1,0 15 8 WNW 10
15.12.2017 06:00:00 2,0 1,0 18 10 NNW 7
15.12.2017 05:00:00 2,0 0,0 15 8 NW 10
15.12.2017 04:00:00 2,0 1,0 11 6 NW 10
15.12.2017 03:00:00 2,0 0,0 21 11 NNW 10
15.12.2017 02:00:00 2,0 0,0 16 9 NNW 10
15.12.2017 01:00:00 0,0 -1,0 9 5 NNW 10
15.12.2017 00:00:00 1,0 -1,0 11 6 NW 10
14.12.2017 23:00:00 1,0 -1,0 13 7 NW 10
14.12.2017 22:00:00 1,0 -1,0 11 6 W 10
14.12.2017 21:00:00 0,0 -1,0 11 6 WNW 10
14.12.2017 20:00:00 1,0 0,0 11 6 WNW 10
14.12.2017 19:00:00 2,0 1,0 15 8 WNW 10
14.12.2017 18:00:00 3,0 1,0 15 8 WNW 10
14.12.2017 17:00:00 2,0 2,0 13 7 W 10
14.12.2017 16:00:00 2,0 2,0 13 7 WSW 10
14.12.2017 15:00:00 2,0 2,0 9 5 WSW 10
14.12.2017 14:00:00 3,0 2,0 13 7 WSW 10
14.12.2017 13:00:00 3,0 2,0 11 6 WSW 10
14.12.2017 12:00:00 4,0 2,0 15 8 WSW 10
14.12.2017 11:00:00 4,0 2,0 11 6 SW 10
14.12.2017 10:00:00 4,0 1,0 9 5 SSW 10
14.12.2017 09:00:00 3,0 1,0 15 8 WSW 10
14.12.2017 08:00:00 2,0 1,0 8 4 SSW 10
14.12.2017 07:00:00 2,0 0,0 8 4 SSW 10
14.12.2017 06:00:00 1,0 0,0 5 3 SW 10
14.12.2017 05:00:00 1,0 0,0 22 12 W 10
14.12.2017 04:00:00 1,0 0,0 24 13 W 10
14.12.2017 03:00:00 2,0 0,0 31 17 W 10
14.12.2017 02:00:00 1,0 0,0 26 14 W 10
14.12.2017 01:00:00 2,0 0,0 28 15 W 10
14.12.2017 00:00:00 2,0 0,0 29 16 W 10
13.12.2017 23:00:00 1,0 0,0 22 12 WNW 10
13.12.2017 22:00:00 2,0 0,0 21 11 WNW 10
13.12.2017 21:00:00 2,0 0,0 13 7 WNW 10
13.12.2017 20:00:00 2,0 0,0 18 10 WNW 10
13.12.2017 19:00:00 2,0 0,0 35 19 W 10
13.12.2017 18:00:00 2,0 0,0 24 13 W 10
13.12.2017 17:00:00 2,0 0,0 28 15 W 10
13.12.2017 16:00:00 2,0 1,0 22 12 W 10
13.12.2017 15:00:00 4,0 1,0 28 15 W 10
13.12.2017 14:00:00 4,0 2,0 26 14 W 10
13.12.2017 13:00:00 4,0 2,0 15 8 WSW 10
13.12.2017 12:00:00 4,0 3,0 24 13 W 10
13.12.2017 11:00:00 6,0 3,0 13 7 SSW 10
13.12.2017 10:00:00 5,0 3,0 15 8 SSW 10
13.12.2017 09:00:00 5,0 2,0 18 10 SW 10
13.12.2017 08:00:00 5,0 2,0 9 5 SSW 10
13.12.2017 07:00:00 5,0 2,0 5 3 - 10
13.12.2017 06:00:00 5,0 3,0 15 8 WSW 10
13.12.2017 05:00:00 5,0 3,0 18 10 W 10
13.12.2017 04:00:00 4,0 3,0 8 4 W 10
13.12.2017 03:00:00 5,0 3,0 21 11 WSW 10
13.12.2017 02:00:00 4,0 3,0 18 10 WSW 10
13.12.2017 01:00:00 5,0 3,0 15 8 W 10
13.12.2017 00:00:00 4,0 2,0 13 7 WSW 10
12.12.2017 23:00:00 5,0 2,0 22 12 SW 10
12.12.2017 22:00:00 3,0 1,0 16 9 S 10
12.12.2017 21:00:00 2,0 1,0 16 9 S 10
12.12.2017 20:00:00 - - - - - -
12.12.2017 19:00:00 3,0 1,0 5 3 - 10
12.12.2017 18:00:00 3,0 1,0 9 5 S 10
12.12.2017 17:00:00 2,0 1,0 11 6 S 10
12.12.2017 16:00:00 2,0 0,0 8 4 S 10
12.12.2017 15:00:00 2,0 -1,0 4 2 S 10
12.12.2017 14:00:00 2,0 -1,0 8 4 SSW 10
12.12.2017 13:00:00 2,0 -1,0 0 0 N 10
12.12.2017 12:00:00 1,0 -2,0 5 3 WSW 10
12.12.2017 11:00:00 1,0 -1,0 5 3 - 10
12.12.2017 10:00:00 -1,0 -2,0 4 2 WSW 10
12.12.2017 09:00:00 -2,0 -3,0 11 6 WSW 10
12.12.2017 08:00:00 -1,0 -2,0 16 9 W 10
12.12.2017 07:00:00 -1,0 -2,0 9 5 WSW 10
12.12.2017 06:00:00 -1,0 -2,0 5 3 W 10
12.12.2017 05:00:00 -2,0 -3,0 4 2 W 10
12.12.2017 04:00:00 -1,0 -2,0 8 4 W 10
12.12.2017 03:00:00 -2,0 -2,0 11 6 WSW 10
12.12.2017 02:00:00 0,0 -1,0 9 5 WSW 10
12.12.2017 01:00:00 -2,0 -2,0 9 5 WSW 10
12.12.2017 00:00:00 -2,0 -2,0 5 3 W 10
11.12.2017 23:00:00 0,0 -1,0 9 5 WNW 10

tt = temperature
td = dewpoint
ff = wind speed
dd = wind direction
vv = visibility

Next stations